createdAt,value
2018-01-23T00:02:18.106Z,95.80
2018-01-23T00:04:46.778Z,95.80
2018-01-23T00:07:15.418Z,95.80
2018-01-23T00:09:43.921Z,95.70
2018-01-23T00:12:12.543Z,95.60
2018-01-23T00:14:42.039Z,95.70
2018-01-23T00:17:12.027Z,95.70
2018-01-23T00:19:40.362Z,95.70
2018-01-23T00:22:10.137Z,95.70
2018-01-23T00:24:39.182Z,95.70
2018-01-23T00:27:08.252Z,95.70
2018-01-23T00:29:36.963Z,96.00
2018-01-23T00:32:06.608Z,96.00
2018-01-23T00:34:34.977Z,95.90
2018-01-23T00:37:03.825Z,95.80
2018-01-23T00:39:32.258Z,95.70
2018-01-23T00:42:01.566Z,95.60
2018-01-23T00:44:30.927Z,94.50
2018-01-23T00:46:59.882Z,94.20
2018-01-23T00:49:28.565Z,94.20
2018-01-23T00:51:57.294Z,94.30
2018-01-23T00:54:25.981Z,94.30
2018-01-23T00:56:54.656Z,94.20
2018-01-23T00:59:24.525Z,94.20
2018-01-23T01:01:53.427Z,94.30
2018-01-23T01:04:22.618Z,94.30
2018-01-23T01:06:51.901Z,94.30
2018-01-23T01:09:20.111Z,94.30
2018-01-23T01:11:49.977Z,94.40
2018-01-23T01:14:18.577Z,94.40
2018-01-23T01:16:46.768Z,94.40
2018-01-23T01:19:16.258Z,94.10
2018-01-23T01:21:45.055Z,94.10
2018-01-23T01:24:14.075Z,94.30
2018-01-23T01:26:43.074Z,94.00
2018-01-23T01:29:11.112Z,94.00
2018-01-23T01:31:40.078Z,94.00
2018-01-23T01:34:08.483Z,93.90
2018-01-23T01:36:38.645Z,93.90
2018-01-23T01:39:06.900Z,93.90
2018-01-23T01:41:35.908Z,93.50
2018-01-23T01:44:04.493Z,92.50
2018-01-23T01:46:32.908Z,91.90
2018-01-23T01:49:02.851Z,91.20
2018-01-23T01:51:31.728Z,90.80
2018-01-23T01:54:00.890Z,90.40
2018-01-23T01:56:30.153Z,90.40
2018-01-23T01:58:58.503Z,90.10
2018-01-23T02:01:28.737Z,89.80
2018-01-23T02:03:58.360Z,89.40
2018-01-23T02:06:28.037Z,89.60
2018-01-23T02:08:56.931Z,90.00
2018-01-23T02:11:25.580Z,90.00
2018-01-23T02:13:55.108Z,89.90
2018-01-23T02:16:24.533Z,90.60
2018-01-23T02:18:53.281Z,90.60
2018-01-23T02:21:22.001Z,90.90
2018-01-23T02:23:50.260Z,90.90
2018-01-23T02:26:19.879Z,91.10
2018-01-23T02:28:48.225Z,91.20
2018-01-23T02:31:17.263Z,91.40
2018-01-23T02:33:46.233Z,91.70
2018-01-23T02:36:16.435Z,91.10
2018-01-23T02:38:45.628Z,91.20
2018-01-23T02:41:15.253Z,91.30
2018-01-23T02:43:44.659Z,91.20
2018-01-23T02:46:13.122Z,91.20
2018-01-23T02:48:42.223Z,91.00
2018-01-23T02:51:11.200Z,91.00
2018-01-23T02:53:39.732Z,90.90
2018-01-23T02:56:09.009Z,90.90
2018-01-23T02:58:37.686Z,90.60
2018-01-23T03:01:06.576Z,90.90
2018-01-23T03:03:35.300Z,91.10
2018-01-23T03:06:04.681Z,91.20
2018-01-23T03:08:33.913Z,91.60
2018-01-23T03:11:03.866Z,91.90
2018-01-23T03:13:33.655Z,91.80
2018-01-23T03:16:01.899Z,91.70
2018-01-23T03:18:30.732Z,91.80
2018-01-23T03:21:00.309Z,91.10
2018-01-23T03:23:28.974Z,91.00
2018-01-23T03:25:58.124Z,91.00
2018-01-23T03:28:26.768Z,90.90
2018-01-23T03:30:56.993Z,91.10
2018-01-23T03:33:26.027Z,91.20
2018-01-23T03:35:54.990Z,91.20
2018-01-23T03:38:23.575Z,91.50
2018-01-23T03:40:53.328Z,91.20
2018-01-23T03:43:21.808Z,91.40
2018-01-23T03:45:50.291Z,91.50
2018-01-23T03:48:19.086Z,91.40
2018-01-23T03:50:48.227Z,91.40
2018-01-23T03:53:17.642Z,91.40
2018-01-23T03:55:47.584Z,91.30
2018-01-23T03:58:16.216Z,91.60
2018-01-23T04:00:46.466Z,91.60
2018-01-23T04:03:15.089Z,91.60
2018-01-23T04:05:44.161Z,91.60
2018-01-23T04:08:13.024Z,91.50
2018-01-23T04:10:41.556Z,91.40
2018-01-23T04:13:09.884Z,91.50
2018-01-23T04:15:38.143Z,91.80
2018-01-23T04:18:06.682Z,90.00
2018-01-23T04:20:34.894Z,90.50
2018-01-23T04:23:03.978Z,90.50
2018-01-23T04:25:33.020Z,90.50
2018-01-23T04:28:01.288Z,90.60
2018-01-23T04:30:29.632Z,90.40
2018-01-23T04:32:57.736Z,89.90
2018-01-23T04:35:26.625Z,90.70
2018-01-23T04:37:55.678Z,90.80
2018-01-23T04:40:24.760Z,90.40
2018-01-23T04:42:53.360Z,90.40
2018-01-23T04:45:21.782Z,90.20
2018-01-23T04:47:51.135Z,90.20
2018-01-23T04:50:20.569Z,90.90
2018-01-23T04:52:50.142Z,91.10
2018-01-23T04:55:18.727Z,91.30
2018-01-23T04:57:47.390Z,91.50
2018-01-23T05:00:15.981Z,91.50
2018-01-23T05:02:44.363Z,91.40
2018-01-23T05:05:13.375Z,91.50
2018-01-23T05:07:42.398Z,91.50
2018-01-23T05:10:11.142Z,91.60
2018-01-23T05:12:40.817Z,91.60
2018-01-23T05:15:10.029Z,91.60
2018-01-23T05:17:38.823Z,91.70
2018-01-23T05:20:07.256Z,91.50
2018-01-23T05:22:35.450Z,91.60
2018-01-23T05:25:04.851Z,91.40
2018-01-23T05:27:33.063Z,91.50
2018-01-23T05:30:02.297Z,92.40
2018-01-23T05:32:31.367Z,92.40
2018-01-23T05:34:59.818Z,92.50
2018-01-23T05:37:28.202Z,92.70
2018-01-23T05:39:56.466Z,93.00
2018-01-23T05:42:25.261Z,93.00
2018-01-23T05:44:54.280Z,93.10
2018-01-23T05:47:22.894Z,92.90
2018-01-23T05:49:51.434Z,93.00
2018-01-23T05:52:20.441Z,93.20
2018-01-23T05:54:48.958Z,92.70
2018-01-23T05:57:17.959Z,92.70
2018-01-23T05:59:47.901Z,92.60
2018-01-23T06:02:18.412Z,92.60
2018-01-23T06:04:47.289Z,92.50
2018-01-23T06:07:16.306Z,92.50
2018-01-23T06:09:45.124Z,92.80
2018-01-23T06:12:14.009Z,92.40
2018-01-23T06:14:42.705Z,92.40
2018-01-23T06:17:11.355Z,92.30
2018-01-23T06:19:39.980Z,92.40
2018-01-23T06:22:09.535Z,92.60
2018-01-23T06:24:39.425Z,92.70
2018-01-23T06:27:08.728Z,92.80
2018-01-23T06:29:37.659Z,92.70
2018-01-23T06:32:07.854Z,92.70
2018-01-23T06:34:36.573Z,92.80
2018-01-23T06:37:05.347Z,92.80
2018-01-23T06:39:34.775Z,92.60
2018-01-23T06:42:05.138Z,92.50
2018-01-23T06:44:33.443Z,92.50
2018-01-23T06:47:02.151Z,92.50
2018-01-23T06:49:30.471Z,92.30
2018-01-23T06:51:59.293Z,92.30
2018-01-23T06:54:27.835Z,92.30
2018-01-23T06:56:56.864Z,92.40
2018-01-23T06:59:26.420Z,92.50
2018-01-23T07:01:55.096Z,92.60
2018-01-23T07:04:24.134Z,92.70
2018-01-23T07:06:52.707Z,92.70
2018-01-23T07:09:22.065Z,92.90
2018-01-23T07:11:50.601Z,92.80
2018-01-23T07:14:19.107Z,92.90
2018-01-23T07:16:48.758Z,92.80
2018-01-23T07:19:17.114Z,93.00
2018-01-23T07:21:46.468Z,92.90
2018-01-23T07:24:15.400Z,92.80
2018-01-23T07:26:44.061Z,93.10
2018-01-23T07:29:13.178Z,93.30
2018-01-23T07:31:41.961Z,93.30
2018-01-23T07:34:11.139Z,93.70
2018-01-23T07:36:39.354Z,93.70
2018-01-23T07:54:30.851Z,93.80
2018-01-23T07:57:00.424Z,93.60
2018-01-23T07:59:30.153Z,93.50
2018-01-23T08:01:58.948Z,93.50
2018-01-23T08:04:27.425Z,93.50
2018-01-23T08:06:57.123Z,93.30
2018-01-23T08:09:26.353Z,93.30
2018-01-23T08:11:54.774Z,93.10
2018-01-23T08:14:23.355Z,93.10
2018-01-23T08:16:52.697Z,92.60
2018-01-23T08:19:21.739Z,92.70
2018-01-23T08:21:51.341Z,92.30
2018-01-23T08:24:20.954Z,92.10
2018-01-23T08:26:49.717Z,92.10
2018-01-23T08:29:18.661Z,92.10
2018-01-23T08:31:47.158Z,92.10
2018-01-23T08:34:15.903Z,92.00
2018-01-23T08:36:44.214Z,91.20
2018-01-23T08:39:13.598Z,90.90
2018-01-23T08:41:43.017Z,91.00
2018-01-23T08:44:12.323Z,91.20
2018-01-23T08:46:41.515Z,90.80
2018-01-23T08:49:10.006Z,90.80
2018-01-23T08:51:38.463Z,91.00
2018-01-23T08:54:06.987Z,90.50
2018-01-23T08:56:36.128Z,90.60
2018-01-23T08:59:04.680Z,90.90
2018-01-23T09:01:34.317Z,90.40
2018-01-23T09:04:03.117Z,90.50
2018-01-23T09:06:31.370Z,90.40
2018-01-23T09:09:00.657Z,90.10
2018-01-23T09:11:30.254Z,90.10
2018-01-23T09:13:58.933Z,89.70
2018-01-23T09:16:27.242Z,89.90
2018-01-23T09:18:55.979Z,89.70
2018-01-23T09:21:25.307Z,89.90
2018-01-23T09:23:53.880Z,89.30
2018-01-23T09:26:22.921Z,88.20
2018-01-23T09:28:51.903Z,87.80
2018-01-23T09:31:20.955Z,87.70
2018-01-23T09:33:49.679Z,89.00
2018-01-23T09:36:17.986Z,88.40
2018-01-23T09:38:46.631Z,88.40
2018-01-23T09:41:15.189Z,88.30
2018-01-23T09:43:44.320Z,88.30
2018-01-23T09:46:13.018Z,88.10
2018-01-23T09:48:42.135Z,87.30
2018-01-23T09:51:10.721Z,87.00
2018-01-23T09:53:38.785Z,86.50
2018-01-23T09:56:07.995Z,86.40
2018-01-23T09:58:36.736Z,87.10
2018-01-23T10:01:05.999Z,87.30
2018-01-23T10:03:35.610Z,85.60
2018-01-23T10:06:04.589Z,85.30
2018-01-23T10:08:34.820Z,85.80
2018-01-23T10:11:03.653Z,85.80
2018-01-23T10:13:31.944Z,86.20
2018-01-23T10:16:00.282Z,86.90
2018-01-23T10:18:29.011Z,85.50
2018-01-23T10:20:59.276Z,85.60
2018-01-23T10:23:28.218Z,85.50
2018-01-23T10:25:57.589Z,85.90
2018-01-23T10:28:27.496Z,85.90
2018-01-23T10:30:56.875Z,85.30
2018-01-23T10:33:25.050Z,85.90
2018-01-23T10:35:54.447Z,85.30
2018-01-23T10:38:24.792Z,83.90
2018-01-23T10:40:53.917Z,84.60
2018-01-23T10:43:23.208Z,84.70
2018-01-23T10:45:52.856Z,84.50
2018-01-23T10:48:21.981Z,83.00
2018-01-23T10:50:50.214Z,80.90
2018-01-23T10:53:20.393Z,81.10
2018-01-23T10:55:49.447Z,79.80
2018-01-23T10:58:18.741Z,79.90
2018-01-23T11:00:47.857Z,80.50
2018-01-23T11:03:16.388Z,81.10
2018-01-23T11:05:45.907Z,79.60
2018-01-23T11:08:14.950Z,81.10
2018-01-23T11:10:44.380Z,81.10
2018-01-23T11:13:13.239Z,81.00
2018-01-23T11:15:42.040Z,81.40
2018-01-23T11:18:10.946Z,81.50
2018-01-23T11:20:39.889Z,82.10
2018-01-23T11:23:08.918Z,82.70
2018-01-23T11:25:37.399Z,83.30
2018-01-23T11:28:06.529Z,82.80
2018-01-23T11:30:35.394Z,82.00
2018-01-23T11:33:04.002Z,81.40
2018-01-23T11:35:32.644Z,81.50
2018-01-23T11:38:01.820Z,80.80
2018-01-23T11:40:30.290Z,80.60
2018-01-23T11:42:59.284Z,80.60
2018-01-23T11:45:28.140Z,79.80
2018-01-23T11:47:56.891Z,79.00
2018-01-23T11:50:25.602Z,79.00
2018-01-23T11:52:55.060Z,79.30
2018-01-23T11:55:23.390Z,79.30
2018-01-23T11:57:52.627Z,78.50
2018-01-23T12:00:22.785Z,78.90
2018-01-23T12:02:52.518Z,77.00
2018-01-23T12:05:20.851Z,76.90
2018-01-23T12:07:50.106Z,79.40
2018-01-23T12:10:19.176Z,79.40
2018-01-23T12:12:48.064Z,78.70
2018-01-23T12:15:17.669Z,78.50
2018-01-23T12:17:46.429Z,78.00
2018-01-23T12:20:14.942Z,77.60
2018-01-23T12:22:43.808Z,79.10
2018-01-23T12:25:14.139Z,79.10
2018-01-23T12:27:42.905Z,79.50
2018-01-23T12:30:13.026Z,79.70
2018-01-23T12:32:42.453Z,80.30
2018-01-23T12:35:12.030Z,80.20
2018-01-23T12:37:41.084Z,80.30
2018-01-23T12:40:10.293Z,80.20
2018-01-23T12:42:39.036Z,79.50
2018-01-23T12:45:07.802Z,79.30
2018-01-23T12:47:36.854Z,79.40
2018-01-23T12:50:05.726Z,78.80
2018-01-23T12:52:34.525Z,78.20
2018-01-23T12:55:04.319Z,79.40
2018-01-23T12:57:33.423Z,77.30
2018-01-23T13:00:02.780Z,76.50
2018-01-23T13:02:31.497Z,76.00
2018-01-23T13:05:00.699Z,74.60
2018-01-23T13:07:29.543Z,75.60
2018-01-23T13:09:59.605Z,75.30
2018-01-23T13:12:28.475Z,75.30
2018-01-23T13:14:57.199Z,74.00
2018-01-23T13:17:26.743Z,73.30
2018-01-23T13:19:55.136Z,73.90
2018-01-23T13:22:24.585Z,75.80
2018-01-23T13:24:53.015Z,74.10
2018-01-23T13:27:22.630Z,74.60
2018-01-23T13:29:52.076Z,75.20
2018-01-23T13:32:20.976Z,75.70
2018-01-23T13:34:50.773Z,74.80
2018-01-23T13:37:19.672Z,74.70
2018-01-23T13:39:49.578Z,75.00
2018-01-23T13:42:18.540Z,74.40
2018-01-23T13:44:47.019Z,75.30
2018-01-23T13:47:15.411Z,75.80
2018-01-23T13:49:43.950Z,76.20
2018-01-23T13:52:12.429Z,74.70
2018-01-23T13:54:42.459Z,75.80
2018-01-23T13:57:10.629Z,76.60
2018-01-23T13:59:39.750Z,76.20
2018-01-23T14:02:08.366Z,76.20
2018-01-23T14:04:37.668Z,76.00
2018-01-23T14:07:06.571Z,75.50
2018-01-23T14:09:35.951Z,76.10
2018-01-23T14:12:05.606Z,75.20
2018-01-23T14:14:34.160Z,75.60
2018-01-23T14:17:03.726Z,74.90
2018-01-23T14:19:32.702Z,75.50
2018-01-23T14:22:02.016Z,76.50
2018-01-23T14:24:31.984Z,76.60
2018-01-23T14:27:01.021Z,75.80
2018-01-23T14:29:29.980Z,76.60
2018-01-23T14:31:58.922Z,76.90
2018-01-23T14:34:28.876Z,77.20
2018-01-23T14:36:57.642Z,77.10
2018-01-23T14:39:26.598Z,78.20
2018-01-23T14:41:55.211Z,77.80
2018-01-23T14:44:24.492Z,76.10
2018-01-23T14:46:54.431Z,75.60
2018-01-23T14:49:23.480Z,75.60
2018-01-23T14:51:51.888Z,75.80
2018-01-23T14:54:21.016Z,75.30
2018-01-23T14:56:49.543Z,75.50
2018-01-23T14:59:18.993Z,75.90
2018-01-23T15:01:47.845Z,75.50
2018-01-23T15:04:17.154Z,76.50
2018-01-23T15:06:46.052Z,76.50
2018-01-23T15:09:18.595Z,76.70
2018-01-23T15:11:47.786Z,77.30
2018-01-23T15:14:16.814Z,75.90
2018-01-23T15:16:45.069Z,75.40
2018-01-23T15:19:14.161Z,75.30
2018-01-23T15:21:44.371Z,75.30
2018-01-23T15:24:13.031Z,75.40
2018-01-23T15:26:42.238Z,75.80
2018-01-23T15:29:11.019Z,76.80
2018-01-23T15:31:40.690Z,76.80
2018-01-23T15:34:09.231Z,76.20
2018-01-23T15:36:38.605Z,77.10
2018-01-23T15:39:07.551Z,77.10
2018-01-23T15:41:36.902Z,76.90
2018-01-23T15:44:06.222Z,77.30
2018-01-23T15:46:34.815Z,78.10
2018-01-23T15:49:04.518Z,79.10
2018-01-23T15:51:34.314Z,79.70
2018-01-23T15:54:03.415Z,80.60
2018-01-23T15:56:32.062Z,80.50
2018-01-23T15:59:00.691Z,81.10
2018-01-23T16:01:30.365Z,81.70
2018-01-23T16:03:58.949Z,82.30
2018-01-23T16:06:27.106Z,82.70
2018-01-23T16:08:55.439Z,82.90
2018-01-23T16:11:24.739Z,82.90
2018-01-23T16:13:52.938Z,83.40
2018-01-23T16:16:21.748Z,83.30
2018-01-23T16:18:55.664Z,82.60
2018-01-23T16:21:24.799Z,83.30
2018-01-23T16:23:53.525Z,83.20
2018-01-23T16:26:22.704Z,83.30
2018-01-23T16:28:51.428Z,82.70
2018-01-23T16:31:20.895Z,82.00
2018-01-23T16:33:48.996Z,82.50
2018-01-23T16:36:17.815Z,82.40
2018-01-23T16:38:47.398Z,82.00
2018-01-23T16:41:16.697Z,82.60
2018-01-23T16:43:45.344Z,81.90
2018-01-23T16:46:13.735Z,80.80
2018-01-23T16:48:43.478Z,80.10
2018-01-23T16:51:13.274Z,79.50
2018-01-23T16:53:41.739Z,79.00
2018-01-23T16:56:10.302Z,79.30
2018-01-23T16:58:39.618Z,80.10
2018-01-23T17:01:08.947Z,80.60
2018-01-23T17:03:37.522Z,80.10
2018-01-23T17:06:07.402Z,80.60
2018-01-23T17:08:36.161Z,80.60
2018-01-23T17:11:04.206Z,81.70
2018-01-23T17:13:33.036Z,81.40
2018-01-23T17:16:02.559Z,81.20
2018-01-23T17:18:31.259Z,81.50
2018-01-23T17:21:00.869Z,81.80
2018-01-23T17:23:29.472Z,81.60
2018-01-23T17:25:59.595Z,80.80
2018-01-23T17:28:28.054Z,81.20
2018-01-23T17:30:57.659Z,81.60
2018-01-23T17:33:26.690Z,82.10
2018-01-23T17:35:56.039Z,83.10
2018-01-23T17:38:24.572Z,82.80
2018-01-23T17:40:52.765Z,83.10
2018-01-23T17:43:21.155Z,84.00
2018-01-23T17:45:50.335Z,84.60
2018-01-23T17:48:18.783Z,84.90
2018-01-23T17:50:48.062Z,85.10
2018-01-23T17:53:17.349Z,85.90
2018-01-23T17:55:45.934Z,87.10
2018-01-23T17:58:15.248Z,87.70
2018-01-23T18:00:43.471Z,87.90
2018-01-23T18:03:12.974Z,87.80
2018-01-23T18:05:42.821Z,89.10
2018-01-23T18:08:11.076Z,89.10
2018-01-23T18:10:40.526Z,89.10
2018-01-23T18:13:08.778Z,89.30
2018-01-23T18:15:37.950Z,89.80
2018-01-23T18:18:06.404Z,89.70
2018-01-23T18:20:35.383Z,90.10
2018-01-23T18:23:04.317Z,90.20
2018-01-23T18:25:33.351Z,90.30
2018-01-23T18:28:02.104Z,90.40
2018-01-23T18:30:30.456Z,90.40
2018-01-23T18:32:58.778Z,90.70
2018-01-23T18:35:28.466Z,91.00
2018-01-23T18:37:57.606Z,90.80
2018-01-23T18:40:27.724Z,91.50
2018-01-23T18:42:58.191Z,91.50
2018-01-23T18:45:26.804Z,91.90
2018-01-23T18:47:54.821Z,92.00
2018-01-23T18:50:22.960Z,92.10
2018-01-23T18:52:51.337Z,92.30
2018-01-23T18:55:20.243Z,92.40
2018-01-23T18:57:49.994Z,92.30
2018-01-23T19:00:19.124Z,92.30
2018-01-23T19:02:47.273Z,92.30
2018-01-23T19:05:16.365Z,92.00
2018-01-23T19:07:45.034Z,91.90
2018-01-23T19:10:13.348Z,92.10
2018-01-23T19:12:42.218Z,92.10
2018-01-23T19:15:10.321Z,92.30
2018-01-23T19:17:40.559Z,92.60
2018-01-23T19:20:10.474Z,92.60
2018-01-23T19:22:39.886Z,92.70
2018-01-23T19:25:08.762Z,92.60
2018-01-23T19:27:37.819Z,93.00
2018-01-23T19:30:06.374Z,93.30
2018-01-23T19:32:36.119Z,93.30
2018-01-23T19:35:05.401Z,93.00
2018-01-23T19:37:34.344Z,93.10
2018-01-23T19:40:03.265Z,93.20
2018-01-23T19:42:31.885Z,93.30
2018-01-23T19:45:00.640Z,93.40
2018-01-23T19:47:28.839Z,93.50
2018-01-23T19:49:58.000Z,93.70
2018-01-23T19:52:26.457Z,93.70
2018-01-23T19:54:56.197Z,93.80
2018-01-23T19:57:24.479Z,93.90
2018-01-23T19:59:54.100Z,93.80
2018-01-23T20:02:22.631Z,94.20
2018-01-23T20:04:51.135Z,94.10
2018-01-23T20:07:19.864Z,94.00
2018-01-23T20:09:48.743Z,93.90
2018-01-23T20:12:17.850Z,94.00
2018-01-23T20:14:47.075Z,94.00
2018-01-23T20:17:15.736Z,94.10
2018-01-23T20:19:44.645Z,93.90
2018-01-23T20:22:12.981Z,93.80
2018-01-23T20:24:41.153Z,93.90
2018-01-23T20:27:10.689Z,93.90
2018-01-23T20:29:38.897Z,93.80
2018-01-23T20:32:08.132Z,94.20
2018-01-23T20:34:37.489Z,93.90
2018-01-23T20:37:06.586Z,93.90
2018-01-23T20:39:35.987Z,93.90
2018-01-23T20:42:04.075Z,93.80
2018-01-23T20:44:33.673Z,93.70
2018-01-23T20:47:02.675Z,93.80
2018-01-23T20:49:31.417Z,93.80
2018-01-23T20:52:00.110Z,93.70
2018-01-23T20:54:29.641Z,93.80
2018-01-23T20:56:59.673Z,93.70
2018-01-23T20:59:28.526Z,93.70
2018-01-23T21:01:56.681Z,93.60
2018-01-23T21:04:24.790Z,93.90
2018-01-23T21:06:53.316Z,93.30
2018-01-23T21:09:21.484Z,93.10
2018-01-23T21:11:51.126Z,93.60
2018-01-23T21:14:19.745Z,94.30
2018-01-23T21:16:47.934Z,94.50
2018-01-23T21:19:17.064Z,94.20
2018-01-23T21:21:45.245Z,93.90
2018-01-23T21:24:14.162Z,94.80
2018-01-23T21:26:42.836Z,94.40
2018-01-23T21:29:12.147Z,95.00
2018-01-23T21:31:42.381Z,94.90
2018-01-23T21:34:11.556Z,94.90
2018-01-23T21:36:39.803Z,94.70
2018-01-23T21:39:08.569Z,95.00
2018-01-23T21:41:37.257Z,95.00
2018-01-23T21:44:06.398Z,95.00
2018-01-23T21:46:35.403Z,94.90
2018-01-23T21:49:03.634Z,94.80
2018-01-23T21:51:32.461Z,94.90
2018-01-23T21:54:00.550Z,95.10
2018-01-23T21:56:29.937Z,95.00
2018-01-23T21:58:58.495Z,95.30
2018-01-23T22:01:26.617Z,95.20
2018-01-23T22:03:55.221Z,95.00
2018-01-23T22:06:24.181Z,95.10
2018-01-23T22:08:52.435Z,95.00
2018-01-23T22:11:21.551Z,95.00
2018-01-23T22:13:50.275Z,95.20
2018-01-23T22:16:19.887Z,94.90
2018-01-23T22:18:48.204Z,94.90
2018-01-23T22:21:16.697Z,94.80
2018-01-23T22:23:45.690Z,94.50
2018-01-23T22:26:14.679Z,94.40
2018-01-23T22:28:43.752Z,94.50
2018-01-23T22:31:12.341Z,94.90
2018-01-23T22:33:41.013Z,95.20
2018-01-23T22:36:09.454Z,95.20
2018-01-23T22:38:38.946Z,95.30
2018-01-23T22:41:08.391Z,95.90
2018-01-23T22:43:37.643Z,95.90
2018-01-23T22:46:07.569Z,95.90
2018-01-23T22:48:36.240Z,95.60
2018-01-23T22:51:05.152Z,95.60
2018-01-23T22:53:34.191Z,95.80
2018-01-23T22:56:03.783Z,95.70
2018-01-23T22:58:33.713Z,95.80
2018-01-23T23:01:03.239Z,95.80
2018-01-23T23:03:32.128Z,95.40
2018-01-23T23:06:00.989Z,95.30
2018-01-23T23:08:29.638Z,95.30
2018-01-23T23:10:58.870Z,95.30
2018-01-23T23:13:27.860Z,94.60
2018-01-23T23:15:56.657Z,94.60
2018-01-23T23:18:24.926Z,94.60
2018-01-23T23:20:54.321Z,94.60
2018-01-23T23:23:24.086Z,94.90
2018-01-23T23:25:52.197Z,94.70
2018-01-23T23:28:20.366Z,94.70
2018-01-23T23:30:49.364Z,94.60
2018-01-23T23:33:18.066Z,94.20
2018-01-23T23:35:46.778Z,93.90
2018-01-23T23:38:16.359Z,93.70
2018-01-23T23:40:44.735Z,93.80
2018-01-23T23:43:14.629Z,94.00
2018-01-23T23:45:43.879Z,94.20
2018-01-23T23:48:12.692Z,94.10
2018-01-23T23:50:41.551Z,94.10
2018-01-23T23:53:10.297Z,93.90
2018-01-23T23:55:40.191Z,94.20
2018-01-23T23:58:09.160Z,94.20
